Time;durP1;ratioP1;P1;durP2;ratioP2;P2;SDS_P1;SDS_P2;PMS_P1;PMS_P2;Temp;Humidity;BMP_temperature;BMP_pressure;BME280_temperature;BME280_humidity;BME280_pressure;Samples;Min_cycle;Max_cycle;Signal;HPM_P1;HPM_P2
2023/06/30 00:01:31;;;;;;;1.67;1.58;;;14.40;99.90;;;;;;4192247;28;20178;-67
2023/06/30 00:03:32;;;;;;;1.73;1.60;;;14.40;99.90;;;;;;4208942;28;20044;-61
2023/06/30 00:05:34;;;;;;;1.55;1.45;;;14.40;99.90;;;;;;4209847;28;20500;-60
2023/06/30 00:07:36;;;;;;;3.95;1.88;;;14.40;99.90;;;;;;4209773;28;20082;-70
2023/06/30 00:09:37;;;;;;;2.03;1.63;;;14.40;99.90;;;;;;4209979;28;20040;-71
2023/06/30 00:11:38;;;;;;;2.92;1.55;;;14.40;99.90;;;;;;4208769;28;20044;-71
2023/06/30 00:13:40;;;;;;;2.63;1.45;;;14.50;99.90;;;;;;4210425;28;20555;-61
2023/06/30 00:15:41;;;;;;;2.53;1.70;;;14.50;99.90;;;;;;4210408;28;20012;-60
2023/06/30 00:17:42;;;;;;;6.03;1.77;;;14.50;99.90;;;;;;4212960;28;20036;-74
2023/06/30 00:19:43;;;;;;;4.05;1.55;;;14.50;99.90;;;;;;4212024;28;20446;-65
2023/06/30 00:21:45;;;;;;;3.40;2.13;;;14.50;99.90;;;;;;4213313;28;20028;-61
2023/06/30 00:23:46;;;;;;;2.80;1.52;;;14.40;99.90;;;;;;4213777;28;20020;-69
2023/06/30 00:25:47;;;;;;;6.03;2.10;;;14.40;99.90;;;;;;4212574;28;20036;-66
2023/06/30 00:27:48;;;;;;;2.13;1.35;;;14.40;99.90;;;;;;4213820;28;20077;-60
2023/06/30 00:29:49;;;;;;;4.95;1.70;;;14.30;99.90;;;;;;4212692;28;20081;-68
2023/06/30 00:31:50;;;;;;;4.70;1.73;;;14.30;99.90;;;;;;4213839;28;20073;-69
2023/06/30 00:33:52;;;;;;;3.13;1.63;;;14.30;99.90;;;;;;4194349;28;20034;-65
2023/06/30 00:35:53;;;;;;;3.83;1.52;;;14.30;99.90;;;;;;4213668;28;20036;-58
2023/06/30 00:37:54;;;;;;;2.63;1.55;;;14.40;99.90;;;;;;4212368;28;20070;-70
2023/06/30 00:39:55;;;;;;;3.97;1.48;;;14.40;99.90;;;;;;4213648;28;20438;-71
2023/06/30 00:41:56;;;;;;;1.95;1.73;;;14.40;99.90;;;;;;4212500;28;20464;-60
2023/06/30 00:43:58;;;;;;;3.05;1.27;;;14.30;99.90;;;;;;4213440;28;20036;-71
2023/06/30 00:45:59;;;;;;;2.10;1.80;;;14.30;99.90;;;;;;4212611;28;20425;-60
2023/06/30 00:48:00;;;;;;;2.20;1.27;;;14.30;99.90;;;;;;4212897;28;20032;-69
2023/06/30 00:50:02;;;;;;;2.70;1.38;;;14.30;99.90;;;;;;4212024;28;20779;-73
2023/06/30 00:52:04;;;;;;;1.88;1.45;;;14.20;99.90;;;;;;4213082;28;20028;-62
2023/06/30 00:54:05;;;;;;;1.40;1.30;;;14.10;99.90;;;;;;4212520;28;20476;-60
2023/06/30 00:56:06;;;;;;;2.08;1.17;;;14.20;99.90;;;;;;4211782;28;20418;-69
2023/06/30 00:58:09;;;;;;;1.45;1.10;;;14.10;99.90;;;;;;4212982;28;20027;-61
2023/06/30 01:00:11;;;;;;;4.85;1.63;;;14.10;99.90;;;;;;4212165;28;20517;-61
2023/06/30 01:02:20;;;;;;;1.55;1.45;;;14.10;99.90;;;;;;4213252;28;20032;-69
2023/06/30 01:04:29;;;;;;;3.08;1.10;;;14.10;99.90;;;;;;4211892;28;20036;-70
2023/06/30 01:06:33;;;;;;;1.80;1.50;;;14.00;99.90;;;;;;4213188;28;20044;-61
2023/06/30 01:08:59;;;;;;;4.05;1.60;;;14.00;99.90;;;;;;4211982;28;20032;-68
2023/06/30 01:11:02;;;;;;;2.15;1.50;;;14.00;99.90;;;;;;4195903;28;20101;-63
2023/06/30 01:13:06;;;;;;;2.90;1.50;;;14.00;99.90;;;;;;4211829;28;20437;-61
2023/06/30 01:15:08;;;;;;;2.53;1.50;;;14.00;99.90;;;;;;4213173;28;20032;-68
2023/06/30 01:17:10;;;;;;;2.95;1.60;;;14.00;99.90;;;;;;4211889;28;20063;-59
2023/06/30 01:19:47;;;;;;;2.80;1.27;;;13.90;99.90;;;;;;4212987;28;20078;-73
2023/06/30 01:21:50;;;;;;;1.50;1.00;;;13.90;99.90;;;;;;4211962;28;20032;-67
2023/06/30 01:24:05;;;;;;;2.33;2.13;;;13.90;99.90;;;;;;4212372;28;20538;-60
2023/06/30 01:26:07;;;;;;;2.45;1.45;;;14.00;99.90;;;;;;4210549;28;20044;-70
2023/06/30 01:28:09;;;;;;;2.70;1.50;;;14.00;99.90;;;;;;4211704;28;20415;-73
2023/06/30 01:30:11;;;;;;;1.95;1.73;;;14.00;99.90;;;;;;4211803;28;20073;-61
2023/06/30 01:32:16;;;;;;;2.47;1.70;;;14.00;99.90;;;;;;4212865;28;20028;-67
2023/06/30 01:34:17;;;;;;;3.10;1.50;;;14.00;99.90;;;;;;4211565;28;20039;-62
2023/06/30 01:36:19;;;;;;;1.63;1.10;;;13.90;99.90;;;;;;4212758;28;20036;-60
2023/06/30 01:38:20;;;;;;;1.50;1.40;;;14.00;99.90;;;;;;4211439;28;20129;-55
2023/06/30 01:40:22;;;;;;;1.60;1.50;;;13.90;99.90;;;;;;4212684;28;20066;-60
2023/06/30 01:42:23;;;;;;;4.13;1.58;;;13.80;99.90;;;;;;4211482;28;20632;-68
2023/06/30 01:44:24;;;;;;;3.83;1.60;;;13.80;99.90;;;;;;4212374;28;20016;-68
2023/06/30 01:46:26;;;;;;;3.20;1.30;;;13.80;99.90;;;;;;4211789;28;20040;-69
2023/06/30 01:48:28;;;;;;;2.33;1.00;;;13.80;99.90;;;;;;4210804;28;20529;-63
2023/06/30 01:50:29;;;;;;;2.07;1.23;;;13.90;99.90;;;;;;4212089;28;20334;-62
2023/06/30 01:52:31;;;;;;;6.25;1.38;;;13.90;99.90;;;;;;4212023;28;20017;-63
2023/06/30 01:54:32;;;;;;;2.07;1.30;;;13.90;99.90;;;;;;4211909;28;20069;-60
2023/06/30 01:56:35;;;;;;;3.03;1.55;;;13.90;99.90;;;;;;4208128;28;20052;-69
2023/06/30 01:58:36;;;;;;;2.13;1.33;;;13.80;99.90;;;;;;4193066;28;20106;-75
2023/06/30 02:00:37;;;;;;;1.50;1.40;;;13.80;99.90;;;;;;4209591;28;20043;-64
2023/06/30 02:02:39;;;;;;;2.55;1.23;;;13.80;99.90;;;;;;4211235;28;20444;-70
2023/06/30 02:04:40;;;;;;;1.77;1.17;;;13.70;99.90;;;;;;4208162;28;20097;-68
2023/06/30 02:06:45;;;;;;;1.93;1.40;;;13.70;99.90;;;;;;4212042;28;20165;-67
2023/06/30 02:08:46;;;;;;;3.40;1.58;;;13.60;99.90;;;;;;4211059;28;20032;-65
2023/06/30 02:10:47;;;;;;;6.07;2.17;;;13.60;99.90;;;;;;4194117;28;20036;-58
2023/06/30 02:12:48;;;;;;;7.23;2.00;;;13.50;99.90;;;;;;4210153;28;20040;-66
2023/06/30 02:14:50;;;;;;;4.43;1.87;;;13.50;99.90;;;;;;4211438;28;20391;-61
2023/06/30 02:16:51;;;;;;;2.83;1.40;;;13.50;99.90;;;;;;4209539;28;20065;-66
2023/06/30 02:18:54;;;;;;;2.63;1.20;;;13.50;99.90;;;;;;4210344;28;20032;-73
2023/06/30 02:20:55;;;;;;;2.13;1.53;;;13.50;99.90;;;;;;4210365;28;20028;-61
2023/06/30 02:22:56;;;;;;;1.83;1.60;;;13.50;99.90;;;;;;4210712;28;20058;-63
2023/06/30 02:24:58;;;;;;;2.58;1.38;;;13.50;99.90;;;;;;4210378;28;20036;-60
2023/06/30 02:26:59;;;;;;;1.47;1.37;;;13.50;99.90;;;;;;4210928;28;20020;-61
2023/06/30 02:29:00;;;;;;;1.97;1.50;;;13.50;99.90;;;;;;4193476;28;20052;-69
2023/06/30 02:31:01;;;;;;;3.00;1.60;;;13.50;99.90;;;;;;4210087;28;20151;-65
2023/06/30 02:33:03;;;;;;;1.53;1.27;;;13.40;99.90;;;;;;4211824;28;20472;-76
2023/06/30 02:35:09;;;;;;;2.23;1.40;;;13.40;99.90;;;;;;4207257;28;20082;-60
2023/06/30 02:37:10;;;;;;;1.70;1.57;;;13.40;99.90;;;;;;4209799;28;20089;-71
2023/06/30 02:39:11;;;;;;;3.03;1.60;;;13.40;99.90;;;;;;4209255;28;20035;-65
2023/06/30 02:41:12;;;;;;;2.37;1.97;;;13.40;99.90;;;;;;4211962;28;20062;-70
2023/06/30 02:43:13;;;;;;;2.73;1.50;;;13.40;99.90;;;;;;4209756;28;20074;-62
2023/06/30 02:45:14;;;;;;;1.77;1.60;;;13.50;99.90;;;;;;4211001;28;20044;-58
2023/06/30 02:47:16;;;;;;;3.00;1.53;;;13.50;99.90;;;;;;4210695;28;20551;-63
2023/06/30 02:49:17;;;;;;;2.30;1.40;;;13.60;99.90;;;;;;4211137;28;20060;-63
2023/06/30 02:51:18;;;;;;;5.03;1.30;;;13.80;99.90;;;;;;4210628;28;20032;-61
2023/06/30 02:53:19;;;;;;;2.40;1.20;;;13.80;99.90;;;;;;4211035;28;20077;-71
2023/06/30 02:55:21;;;;;;;3.03;1.77;;;14.00;99.90;;;;;;4211211;28;20032;-61
2023/06/30 02:57:23;;;;;;;3.67;1.90;;;14.20;99.90;;;;;;4210570;28;20036;-68
2023/06/30 02:59:24;;;;;;;1.40;1.30;;;14.40;99.90;;;;;;4211182;28;20145;-67
2023/06/30 03:01:25;;;;;;;1.37;1.27;;;14.60;99.90;;;;;;4210399;28;20028;-77
2023/06/30 03:03:26;;;;;;;3.10;1.20;;;14.70;99.90;;;;;;4211022;28;20482;-59
2023/06/30 03:05:28;;;;;;;2.08;1.25;;;14.90;99.90;;;;;;4210233;28;20044;-74
2023/06/30 03:07:30;;;;;;;3.10;1.30;;;15.10;99.90;;;;;;4211117;28;20028;-66
2023/06/30 03:09:31;;;;;;;2.58;1.13;;;15.30;99.90;;;;;;4210277;28;20032;-70
2023/06/30 03:11:32;;;;;;;1.60;1.17;;;15.50;99.90;;;;;;4211359;28;20032;-61
2023/06/30 03:13:34;;;;;;;7.15;1.35;;;15.80;99.90;;;;;;4209125;28;20040;-69
2023/06/30 03:15:35;;;;;;;3.75;1.23;;;16.10;99.90;;;;;;4210810;28;20090;-67
2023/06/30 03:17:36;;;;;;;1.67;1.00;;;16.40;99.90;;;;;;4210085;28;20549;-66
2023/06/30 03:19:37;;;;;;;2.33;1.08;;;16.70;99.90;;;;;;4210687;28;20024;-62
2023/06/30 03:21:38;;;;;;;2.33;1.15;;;17.10;99.90;;;;;;4210121;28;20026;-61
2023/06/30 03:23:41;;;;;;;1.30;1.05;;;17.30;99.90;;;;;;4210689;28;20036;-65
2023/06/30 03:25:42;;;;;;;3.38;1.13;;;17.60;99.90;;;;;;4210601;28;20097;-62
2023/06/30 03:27:43;;;;;;;0.82;0.82;;;17.90;99.90;;;;;;4210266;28;20109;-62
2023/06/30 03:29:44;;;;;;;1.20;1.10;;;18.20;99.90;;;;;;4192449;28;20036;-61
2023/06/30 03:31:46;;;;;;;3.80;1.00;;;18.50;99.90;;;;;;4208982;28;20073;-61
2023/06/30 03:33:47;;;;;;;4.95;1.13;;;18.60;99.90;;;;;;4210082;28;20070;-61
2023/06/30 03:35:49;;;;;;;2.28;1.20;;;18.90;99.90;;;;;;4191040;28;20032;-61
2023/06/30 03:37:50;;;;;;;3.53;1.33;;;19.10;99.90;;;;;;4210925;28;20545;-72
2023/06/30 03:39:51;;;;;;;3.10;1.17;;;19.30;99.90;;;;;;4209726;28;20020;-61
2023/06/30 03:41:53;;;;;;;2.65;1.00;;;19.50;99.90;;;;;;4211075;28;20024;-62
2023/06/30 03:43:54;;;;;;;1.38;0.90;;;19.80;99.90;;;;;;4208930;28;20093;-69
2023/06/30 03:45:55;;;;;;;3.25;0.90;;;20.20;99.90;;;;;;4210534;28;20040;-65
2023/06/30 03:47:56;;;;;;;1.25;0.80;;;20.50;99.90;;;;;;4209577;28;20028;-65
2023/06/30 03:49:57;;;;;;;1.00;0.90;;;20.70;99.90;;;;;;4210258;28;20085;-64
2023/06/30 03:51:58;;;;;;;1.15;0.93;;;21.10;99.90;;;;;;4208830;28;20089;-61
2023/06/30 03:54:00;;;;;;;1.77;1.23;;;21.10;99.90;;;;;;4209959;28;20040;-68
2023/06/30 03:56:01;;;;;;;1.90;0.80;;;21.40;99.90;;;;;;4208424;28;20028;-67
2023/06/30 03:58:03;;;;;;;3.10;0.90;;;21.70;99.90;;;;;;4193414;28;20028;-66
2023/06/30 04:00:05;;;;;;;2.15;0.70;;;22.10;99.90;;;;;;4194594;28;20078;-71
2023/06/30 04:02:06;;;;;;;5.03;1.35;;;22.40;99.90;;;;;;4209329;28;20395;-62
2023/06/30 04:04:07;;;;;;;0.90;0.85;;;22.70;99.90;;;;;;4209887;28;21028;-70
2023/06/30 04:06:08;;;;;;;3.40;0.88;;;23.00;99.90;;;;;;4209339;28;20074;-64
2023/06/30 04:08:09;;;;;;;1.73;0.70;;;23.40;99.90;;;;;;4192574;28;20071;-63
2023/06/30 04:10:10;;;;;;;0.70;0.70;;;23.70;99.90;;;;;;4207602;28;20505;-75
2023/06/30 04:12:11;;;;;;;1.00;0.90;;;24.00;99.90;;;;;;4204996;28;20428;-61
2023/06/30 04:14:13;;;;;;;0.95;0.80;;;24.20;99.30;;;;;;4209564;28;20841;-63
2023/06/30 04:16:14;;;;;;;2.80;0.82;;;24.20;98.80;;;;;;4209490;28;20758;-60
2023/06/30 04:18:15;;;;;;;0.95;0.60;;;24.30;98.50;;;;;;4208052;28;20040;-62
2023/06/30 04:20:16;;;;;;;3.95;0.68;;;24.50;98.10;;;;;;4210067;28;20081;-60
2023/06/30 04:22:17;;;;;;;3.92;0.90;;;24.70;97.60;;;;;;4210773;28;20040;-60
2023/06/30 04:24:19;;;;;;;4.78;0.93;;;24.90;97.10;;;;;;4219284;28;20096;-62
2023/06/30 04:26:20;;;;;;;3.42;0.90;;;25.10;96.60;;;;;;4209392;28;20040;-61
2023/06/30 04:28:21;;;;;;;4.43;0.70;;;25.30;96.20;;;;;;4208324;28;20048;-62
2023/06/30 04:30:23;;;;;;;1.65;0.70;;;25.70;95.60;;;;;;4209668;28;20040;-60
2023/06/30 04:32:24;;;;;;;1.60;0.85;;;26.10;95.20;;;;;;4209195;28;20113;-61
2023/06/30 04:34:25;;;;;;;3.28;0.85;;;26.20;94.60;;;;;;4209509;28;20028;-60
2023/06/30 04:36:28;;;;;;;6.63;2.15;;;26.40;94.10;;;;;;4208371;28;20040;-60
2023/06/30 04:38:30;;;;;;;3.45;0.63;;;26.50;93.70;;;;;;4210310;28;20121;-61
2023/06/30 04:40:31;;;;;;;4.05;0.75;;;26.60;93.30;;;;;;4208960;28;20036;-61
2023/06/30 04:42:32;;;;;;;3.22;0.70;;;26.00;92.90;;;;;;4208342;28;20387;-63
2023/06/30 04:44:33;;;;;;;3.88;0.70;;;24.80;93.10;;;;;;4207637;28;20039;-62
2023/06/30 04:46:34;;;;;;;2.25;0.82;;;24.80;93.70;;;;;;4209790;28;20097;-61
2023/06/30 04:48:36;;;;;;;1.95;0.70;;;25.20;93.50;;;;;;4207819;28;20129;-61
2023/06/30 04:50:37;;;;;;;6.68;1.40;;;25.50;93.20;;;;;;4209950;28;20016;-61
2023/06/30 04:52:38;;;;;;;1.40;0.65;;;25.40;92.70;;;;;;4209428;28;20180;-62
2023/06/30 04:54:39;;;;;;;3.95;0.90;;;25.20;92.60;;;;;;4209873;28;20040;-65
2023/06/30 04:56:40;;;;;;;1.73;0.70;;;25.20;92.90;;;;;;4208641;28;20097;-61
2023/06/30 04:58:41;;;;;;;1.10;0.80;;;25.80;92.70;;;;;;4209320;28;20046;-63
2023/06/30 05:00:43;;;;;;;1.45;0.60;;;26.50;92.20;;;;;;4208795;28;20149;-60
2023/06/30 05:02:44;;;;;;;7.03;1.35;;;27.00;91.50;;;;;;4209830;28;20487;-61
2023/06/30 05:04:45;;;;;;;2.13;1.35;;;27.30;91.00;;;;;;4212019;28;20032;-68
2023/06/30 05:06:46;;;;;;;2.40;0.65;;;27.40;90.70;;;;;;4211797;28;20067;-79
2023/06/30 05:08:47;;;;;;;1.27;0.68;;;27.70;90.40;;;;;;4212869;28;20032;-61
2023/06/30 05:10:48;;;;;;;3.38;0.75;;;28.10;89.90;;;;;;4211606;28;20085;-62
2023/06/30 05:12:50;;;;;;;1.67;0.82;;;28.50;89.00;;;;;;4212929;28;20032;-75
2023/06/30 05:14:51;;;;;;;1.23;0.88;;;28.70;88.20;;;;;;4211673;28;20016;-60
2023/06/30 05:16:53;;;;;;;0.80;0.55;;;28.90;87.50;;;;;;4212266;28;20048;-72
2023/06/30 05:18:54;;;;;;;0.82;0.57;;;29.00;86.80;;;;;;4211352;28;20113;-73
2023/06/30 05:20:55;;;;;;;1.70;1.00;;;29.10;86.40;;;;;;4212456;28;20036;-62
2023/06/30 05:22:56;;;;;;;4.82;0.65;;;29.10;86.10;;;;;;4211289;28;20498;-75
2023/06/30 05:24:57;;;;;;;2.80;0.77;;;29.10;85.70;;;;;;4212427;28;20032;-72
2023/06/30 05:26:58;;;;;;;1.05;0.60;;;29.20;85.90;;;;;;4211856;28;20070;-75
2023/06/30 05:29:00;;;;;;;3.58;0.65;;;29.60;84.60;;;;;;4210807;28;20430;-80
2023/06/30 05:31:01;;;;;;;1.35;0.80;;;29.30;84.10;;;;;;4211233;28;20044;-61
2023/06/30 05:33:02;;;;;;;1.73;0.90;;;29.30;83.80;;;;;;4210644;28;20036;-70
2023/06/30 05:35:04;;;;;;;4.43;0.85;;;29.50;83.30;;;;;;4212199;28;20430;-75
2023/06/30 05:37:05;;;;;;;4.03;0.70;;;29.30;83.20;;;;;;4211158;28;20036;-73
2023/06/30 05:39:06;;;;;;;1.98;0.80;;;29.00;83.20;;;;;;4212383;28;20054;-78
2023/06/30 05:41:08;;;;;;;2.55;0.70;;;29.10;83.40;;;;;;4210097;28;20032;-66
2023/06/30 05:43:09;;;;;;;3.42;0.93;;;29.20;83.10;;;;;;4212300;28;20040;-66
2023/06/30 05:45:10;;;;;;;1.27;1.00;;;29.40;83.00;;;;;;4209931;28;20048;-68
2023/06/30 05:47:12;;;;;;;2.20;0.82;;;29.60;82.50;;;;;;4212136;28;20044;-68
2023/06/30 05:49:13;;;;;;;2.03;1.00;;;29.30;82.50;;;;;;4211055;28;20040;-71
2023/06/30 05:51:14;;;;;;;3.25;0.80;;;29.70;82.20;;;;;;4212303;28;20081;-62
2023/06/30 05:53:15;;;;;;;2.03;1.15;;;30.20;81.50;;;;;;4210630;28;20086;-61
2023/06/30 05:55:16;;;;;;;4.30;0.90;;;30.00;81.00;;;;;;4212105;28;20081;-74
2023/06/30 05:57:17;;;;;;;0.95;0.90;;;29.80;81.10;;;;;;4210582;28;20105;-71
2023/06/30 05:59:18;;;;;;;2.50;0.52;;;29.90;81.00;;;;;;4192786;28;20079;-67
2023/06/30 06:01:20;;;;;;;1.63;0.80;;;30.10;80.70;;;;;;4210671;28;20032;-64
2023/06/30 06:03:21;;;;;;;2.45;0.90;;;30.40;80.50;;;;;;4210981;28;20086;-75
2023/06/30 06:05:22;;;;;;;6.05;0.60;;;30.60;80.40;;;;;;4211151;28;20146;-67
2023/06/30 06:07:23;;;;;;;0.70;0.70;;;30.80;80.20;;;;;;4210053;28;20052;-70
2023/06/30 06:09:24;;;;;;;1.23;0.80;;;30.90;79.20;;;;;;4211208;28;20081;-73
2023/06/30 06:11:26;;;;;;;2.80;1.00;;;30.70;79.20;;;;;;4209856;28;20456;-61
2023/06/30 06:13:37;;;;;;;1.75;0.60;;;30.30;79.40;;;;;;4211866;28;20024;-66
2023/06/30 06:15:38;;;;;;;3.47;1.05;;;29.80;78.80;;;;;;4210857;28;20085;-61
2023/06/30 06:17:39;;;;;;;0.75;0.70;;;29.50;80.40;;;;;;4211741;28;20383;-69
2023/06/30 06:19:40;;;;;;;1.73;0.80;;;29.70;80.40;;;;;;4210039;28;20040;-70
2023/06/30 06:21:42;;;;;;;2.22;0.90;;;29.40;80.30;;;;;;4211975;28;20031;-73
2023/06/30 06:23:43;;;;;;;2.63;1.02;;;29.30;80.60;;;;;;4210270;28;20048;-70
2023/06/30 06:25:44;;;;;;;1.85;1.02;;;29.30;80.50;;;;;;4211664;28;20410;-61
2023/06/30 06:27:45;;;;;;;4.25;0.65;;;28.90;80.80;;;;;;4209978;28;20597;-77
2023/06/30 06:29:46;;;;;;;2.53;1.40;;;28.80;81.10;;;;;;4211052;28;20097;-73
2023/06/30 06:31:49;;;;;;;6.45;0.90;;;29.10;80.80;;;;;;4210324;28;20040;-72
2023/06/30 06:33:50;;;;;;;1.40;0.90;;;29.20;80.90;;;;;;4210763;28;20542;-75
2023/06/30 06:35:52;;;;;;;3.05;0.80;;;29.20;80.70;;;;;;4210530;28;20048;-76
2023/06/30 06:37:53;;;;;;;2.72;0.85;;;29.30;80.50;;;;;;4210379;28;20036;-65
2023/06/30 06:39:54;;;;;;;3.40;0.95;;;29.30;80.60;;;;;;4211520;28;20082;-62
2023/06/30 06:41:56;;;;;;;2.35;0.65;;;29.40;80.70;;;;;;4209462;28;20036;-62
2023/06/30 06:43:58;;;;;;;4.68;1.05;;;29.30;80.50;;;;;;4211252;28;20032;-61
2023/06/30 06:45:59;;;;;;;2.83;0.80;;;28.40;80.70;;;;;;4210144;28;20031;-74
2023/06/30 06:48:26;;;;;;;2.53;0.90;;;28.00;81.90;;;;;;4211161;28;20028;-77
2023/06/30 06:50:27;;;;;;;3.67;0.90;;;28.00;82.30;;;;;;4210175;28;20415;-78
2023/06/30 06:52:28;;;;;;;3.33;0.82;;;28.10;82.60;;;;;;4211329;28;20032;-76
2023/06/30 06:54:29;;;;;;;4.25;1.20;;;27.50;82.40;;;;;;4210385;28;20047;-73
2023/06/30 06:56:31;;;;;;;5.45;1.25;;;27.20;83.30;;;;;;4211613;28;20028;-62
2023/06/30 06:58:38;;;;;;;3.58;1.00;;;27.30;83.40;;;;;;4175610;28;20471;-76
2023/06/30 07:00:39;;;;;;;1.73;0.90;;;27.30;83.40;;;;;;4210345;28;20087;-63
2023/06/30 07:02:40;;;;;;;3.80;1.05;;;27.10;83.70;;;;;;4209942;28;20368;-62
2023/06/30 07:04:42;;;;;;;3.30;1.17;;;27.10;83.80;;;;;;4210030;28;20085;-81
2023/06/30 07:06:43;;;;;;;3.55;1.00;;;26.50;84.80;;;;;;4209963;28;20035;-79
2023/06/30 07:08:44;;;;;;;4.10;1.30;;;26.10;85.90;;;;;;4209765;28;20430;-80
2023/06/30 07:10:47;;;;;;;3.83;1.10;;;25.80;86.60;;;;;;4209463;28;20368;-80
2023/06/30 07:12:48;;;;;;;3.72;1.50;;;25.60;87.10;;;;;;4210097;28;20862;-78
2023/06/30 07:14:50;;;;;;;3.78;1.50;;;25.70;87.20;;;;;;4210392;28;20028;-63
2023/06/30 07:16:51;;;;;;;3.10;1.25;;;25.70;87.00;;;;;;4210050;28;20028;-77
2023/06/30 07:18:52;;;;;;;4.13;1.20;;;25.80;87.10;;;;;;4210840;28;20391;-68
2023/06/30 07:20:54;;;;;;;6.78;1.25;;;25.70;87.50;;;;;;4209742;28;20020;-78
2023/06/30 07:22:56;;;;;;;2.80;1.50;;;26.00;87.70;;;;;;4210819;28;20024;-61
2023/06/30 07:24:57;;;;;;;4.70;1.40;;;25.70;88.20;;;;;;4209805;28;20074;-80
2023/06/30 07:26:58;;;;;;;2.60;1.10;;;25.50;88.60;;;;;;4210646;28;20555;-60
2023/06/30 07:29:00;;;;;;;4.22;0.90;;;25.40;88.70;;;;;;4209439;28;20032;-60
2023/06/30 07:31:01;;;;;;;4.72;1.27;;;25.60;88.60;;;;;;4210737;28;20032;-60
2023/06/30 07:33:02;;;;;;;2.70;0.93;;;25.70;88.90;;;;;;4209470;28;20122;-62
2023/06/30 07:35:04;;;;;;;2.15;1.10;;;25.50;89.20;;;;;;4210473;28;20113;-80
2023/06/30 07:37:05;;;;;;;4.35;1.48;;;25.10;89.80;;;;;;4209481;28;20036;-75
2023/06/30 07:39:06;;;;;;;3.42;1.20;;;25.00;90.30;;;;;;4210216;28;20534;-77
2023/06/30 07:41:07;;;;;;;2.55;1.60;;;25.30;90.10;;;;;;4209590;28;20081;-61
2023/06/30 07:43:08;;;;;;;2.35;1.20;;;25.50;89.60;;;;;;4209337;28;20048;-76
2023/06/30 07:45:14;;;;;;;3.80;1.10;;;25.60;89.60;;;;;;4210055;28;20016;-80
2023/06/30 07:47:18;;;;;;;2.75;1.00;;;25.90;90.10;;;;;;4208566;28;20087;-61
2023/06/30 07:49:21;;;;;;;6.90;1.10;;;26.40;90.00;;;;;;4209895;28;20040;-79
2023/06/30 07:51:22;;;;;;;2.88;0.80;;;26.50;88.80;;;;;;4209182;28;20074;-61
2023/06/30 07:53:23;;;;;;;8.52;1.17;;;26.90;88.60;;;;;;4210468;28;20024;-76
2023/06/30 07:55:25;;;;;;;2.88;1.13;;;26.90;88.40;;;;;;4209810;28;20460;-81
2023/06/30 07:57:26;;;;;;;1.15;1.02;;;26.70;88.40;;;;;;4210643;28;20457;-74
2023/06/30 07:59:27;;;;;;;3.50;0.98;;;26.40;88.80;;;;;;4208486;28;20036;-69
2023/06/30 08:01:29;;;;;;;1.90;0.90;;;26.10;89.70;;;;;;4210682;28;20069;-62
2023/06/30 08:03:30;;;;;;;4.45;0.80;;;26.20;90.10;;;;;;4208618;28;20265;-79
2023/06/30 08:05:32;;;;;;;1.73;0.82;;;26.50;89.30;;;;;;4210699;28;20411;-81
2023/06/30 08:07:33;;;;;;;1.73;0.98;;;26.80;87.90;;;;;;4208433;28;20452;-75
2023/06/30 08:09:34;;;;;;;1.30;1.08;;;27.10;87.10;;;;;;4210323;28;20032;-80
2023/06/30 08:11:36;;;;;;;2.05;0.90;;;27.20;86.70;;;;;;4190795;28;20036;-79
2023/06/30 08:13:37;;;;;;;2.70;1.33;;;27.60;86.90;;;;;;4209732;28;20085;-70
2023/06/30 08:15:39;;;;;;;2.90;1.38;;;28.00;86.10;;;;;;4209577;28;20353;-77
2023/06/30 08:17:40;;;;;;;1.63;1.17;;;28.10;85.00;;;;;;4208811;28;20032;-66
2023/06/30 08:19:42;;;;;;;2.92;1.30;;;27.90;84.40;;;;;;4209210;28;20109;-81
2023/06/30 08:21:43;;;;;;;1.20;1.10;;;27.40;84.00;;;;;;4209203;28;20032;-61
2023/06/30 08:23:44;;;;;;;3.38;1.60;;;27.20;84.20;;;;;;4209324;28;20381;-61
2023/06/30 08:25:46;;;;;;;3.47;1.27;;;27.10;84.40;;;;;;4209738;28;20482;-62
2023/06/30 08:27:47;;;;;;;5.68;1.40;;;26.90;84.20;;;;;;4210194;28;20032;-71
2023/06/30 08:29:48;;;;;;;2.63;1.63;;;26.80;84.40;;;;;;4208117;28;20048;-81
2023/06/30 08:31:49;;;;;;;2.20;1.33;;;26.60;84.20;;;;;;4209546;28;20098;-71
2023/06/30 08:33:50;;;;;;;1.27;1.17;;;26.50;83.90;;;;;;4208869;28;20032;-75
2023/06/30 08:35:52;;;;;;;2.22;1.23;;;26.30;84.20;;;;;;4210129;28;20050;-77
2023/06/30 08:37:53;;;;;;;2.92;1.25;;;26.20;84.10;;;;;;4209256;28;20059;-73
2023/06/30 08:39:54;;;;;;;2.17;1.08;;;26.00;84.20;;;;;;4213234;28;20028;-77
2023/06/30 08:41:56;;;;;;;10.73;1.80;;;26.10;84.70;;;;;;4211521;28;20051;-80
2023/06/30 08:43:59;;;;;;;4.30;0.90;;;26.50;84.60;;;;;;4213352;28;20024;-81
2023/06/30 08:46:03;;;;;;;2.70;1.20;;;26.40;84.80;;;;;;4212660;28;20373;-77
2023/06/30 08:48:05;;;;;;;3.42;1.13;;;26.60;85.00;;;;;;4212411;28;20059;-78
2023/06/30 08:50:07;;;;;;;2.08;1.25;;;26.90;85.40;;;;;;4212450;28;20105;-79
2023/06/30 08:52:09;;;;;;;2.00;1.45;;;27.30;85.10;;;;;;4212332;28;20032;-72
2023/06/30 08:54:11;;;;;;;1.60;1.15;;;27.70;84.40;;;;;;4212980;28;20077;-79
2023/06/30 08:56:14;;;;;;;1.73;1.20;;;27.80;84.20;;;;;;4211307;28;20097;-74
2023/06/30 08:58:16;;;;;;;4.22;1.30;;;28.10;84.40;;;;;;4213116;28;20020;-62
2023/06/30 09:00:18;;;;;;;2.42;1.40;;;28.20;84.10;;;;;;4211896;28;20028;-75
2023/06/30 09:02:19;;;;;;;3.25;1.20;;;27.90;82.90;;;;;;4177997;28;20094;-77
2023/06/30 09:04:22;;;;;;;1.65;1.55;;;27.50;82.80;;;;;;4211848;28;20125;-62
2023/06/30 09:06:25;;;;;;;3.50;1.58;;;27.20;82.90;;;;;;4212902;28;20028;-62
2023/06/30 09:08:37;;;;;;;2.03;1.50;;;27.10;83.20;;;;;;4211566;28;20106;-72
2023/06/30 09:10:38;;;;;;;3.42;1.80;;;27.20;82.60;;;;;;4212782;28;20105;-61
2023/06/30 09:12:43;;;;;;;4.10;1.50;;;27.10;83.00;;;;;;4211380;28;20367;-61
2023/06/30 09:14:45;;;;;;;2.60;1.17;;;27.10;82.60;;;;;;4213058;28;20089;-61
2023/06/30 09:16:47;;;;;;;1.42;1.33;;;27.00;83.00;;;;;;4211774;28;20077;-61
2023/06/30 09:18:49;;;;;;;1.85;1.65;;;27.30;83.70;;;;;;4193682;28;20182;-68
2023/06/30 09:20:50;;;;;;;1.48;1.23;;;27.10;82.80;;;;;;4211421;28;20460;-63
2023/06/30 09:22:52;;;;;;;2.83;1.40;;;26.80;83.50;;;;;;4211352;28;20120;-61
2023/06/30 09:24:53;;;;;;;1.98;1.30;;;26.50;83.60;;;;;;4211425;28;20044;-66
2023/06/30 09:26:55;;;;;;;1.90;1.40;;;26.10;83.60;;;;;;4211052;28;20048;-61
2023/06/30 09:28:56;;;;;;;3.17;1.52;;;25.90;84.00;;;;;;4211217;28;20466;-61
2023/06/30 09:30:59;;;;;;;2.15;1.30;;;25.70;84.50;;;;;;4211141;28;20032;-72
2023/06/30 09:33:01;;;;;;;2.38;1.23;;;25.80;84.60;;;;;;4212236;28;20093;-61
2023/06/30 09:35:06;;;;;;;2.63;1.27;;;25.80;84.50;;;;;;4210838;28;20468;-67
2023/06/30 09:37:14;;;;;;;3.80;1.52;;;26.00;84.50;;;;;;4211533;28;20093;-64
2023/06/30 09:39:15;;;;;;;2.17;1.10;;;26.00;83.90;;;;;;4210431;28;20032;-77
2023/06/30 09:41:20;;;;;;;2.97;1.55;;;25.90;83.60;;;;;;4193499;28;20400;-61
2023/06/30 09:43:23;;;;;;;3.30;1.20;;;25.80;83.00;;;;;;4211106;28;20089;-66
2023/06/30 09:45:25;;;;;;;1.85;1.75;;;25.70;83.40;;;;;;4212189;28;20024;-74
2023/06/30 09:47:26;;;;;;;2.15;1.58;;;25.40;83.40;;;;;;4210312;28;20188;-62
2023/06/30 09:49:32;;;;;;;5.03;1.50;;;25.30;83.30;;;;;;4211439;28;20109;-74
2023/06/30 09:51:34;;;;;;;3.70;1.70;;;25.20;83.30;;;;;;4192323;28;20041;-74
2023/06/30 09:53:40;;;;;;;1.42;1.15;;;25.30;83.40;;;;;;4212108;28;20090;-77
2023/06/30 09:55:51;;;;;;;3.58;1.75;;;25.20;83.50;;;;;;4211257;28;20032;-77
2023/06/30 09:57:55;;;;;;;3.00;1.58;;;25.20;84.40;;;;;;4212005;28;20032;-61
2023/06/30 09:59:59;;;;;;;1.38;1.27;;;24.90;85.00;;;;;;4209947;28;20078;-71
2023/06/30 10:02:02;;;;;;;3.13;1.50;;;24.90;85.50;;;;;;4211644;28;20058;-62
2023/06/30 10:04:03;;;;;;;2.28;1.63;;;25.00;85.30;;;;;;4209940;28;20047;-79
2023/06/30 10:06:04;;;;;;;1.63;1.35;;;25.00;85.20;;;;;;4210599;28;20040;-78
2023/06/30 10:08:06;;;;;;;2.20;1.77;;;24.90;85.90;;;;;;4211386;28;20040;-78
2023/06/30 10:10:11;;;;;;;3.22;1.38;;;25.20;85.90;;;;;;4210235;28;20024;-77
2023/06/30 10:12:14;;;;;;;2.38;1.50;;;25.20;85.10;;;;;;4211415;28;20035;-80
2023/06/30 10:14:16;;;;;;;2.72;1.50;;;25.10;84.90;;;;;;4210841;28;20028;-74
2023/06/30 10:16:20;;;;;;;1.95;1.70;;;25.10;84.60;;;;;;4211078;28;20053;-79
2023/06/30 10:18:22;;;;;;;1.65;1.38;;;25.20;84.40;;;;;;4210394;28;20036;-63
2023/06/30 10:20:24;;;;;;;4.63;1.98;;;25.10;84.60;;;;;;4211024;28;20434;-62
2023/06/30 10:22:25;;;;;;;2.88;1.42;;;25.30;84.30;;;;;;4209859;28;20055;-62
2023/06/30 10:24:29;;;;;;;1.60;1.35;;;25.30;84.30;;;;;;4211731;28;20020;-71
2023/06/30 10:26:33;;;;;;;3.53;1.92;;;25.30;83.70;;;;;;4210835;28;20719;-61
2023/06/30 10:28:37;;;;;;;2.47;1.60;;;25.30;83.20;;;;;;4210903;28;20650;-62
2023/06/30 10:30:39;;;;;;;2.88;1.52;;;25.30;83.40;;;;;;4210446;28;20024;-81
2023/06/30 10:32:40;;;;;;;1.35;1.17;;;25.30;83.50;;;;;;4210849;28;20069;-74
2023/06/30 10:34:42;;;;;;;2.88;1.58;;;25.30;83.60;;;;;;4209660;28;20058;-76
2023/06/30 10:36:44;;;;;;;1.45;1.35;;;25.50;83.80;;;;;;4210550;28;20028;-74